sensor_id;sensor_type;location;lat;lon;timestamp;pressure;altitude;pressure_sealevel;temperature;humidity
4705;BME280;2366;51.332;6.610;2023-07-22T00:00:15;101248.94;;;19.44;51.39
4705;BME280;2366;51.332;6.610;2023-07-22T00:02:41;101251.63;;;19.44;51.30
4705;BME280;2366;51.332;6.610;2023-07-22T00:05:08;101242.97;;;19.41;50.78
4705;BME280;2366;51.332;6.610;2023-07-22T00:07:34;101261.09;;;19.39;51.42
4705;BME280;2366;51.332;6.610;2023-07-22T00:09:59;101252.47;;;19.45;51.52
4705;BME280;2366;51.332;6.610;2023-07-22T00:12:25;101248.81;;;19.46;51.70
4705;BME280;2366;51.332;6.610;2023-07-22T00:14:51;101251.78;;;19.53;51.66
4705;BME280;2366;51.332;6.610;2023-07-22T00:17:18;101247.13;;;19.55;51.60
4705;BME280;2366;51.332;6.610;2023-07-22T00:19:44;101247.69;;;19.58;51.47
4705;BME280;2366;51.332;6.610;2023-07-22T00:22:09;101249.38;;;19.59;51.34
4705;BME280;2366;51.332;6.610;2023-07-22T00:24:35;101242.72;;;19.54;51.65
4705;BME280;2366;51.332;6.610;2023-07-22T00:27:00;101244.28;;;19.56;51.70
4705;BME280;2366;51.332;6.610;2023-07-22T00:29:26;101240.91;;;19.54;51.87
4705;BME280;2366;51.332;6.610;2023-07-22T00:31:51;101241.03;;;19.53;51.95
4705;BME280;2366;51.332;6.610;2023-07-22T00:34:16;101247.25;;;19.53;51.80
4705;BME280;2366;51.332;6.610;2023-07-22T00:36:42;101240.59;;;19.57;51.62
4705;BME280;2366;51.332;6.610;2023-07-22T00:39:08;101250.09;;;19.61;51.70
4705;BME280;2366;51.332;6.610;2023-07-22T00:41:33;101247.13;;;19.55;51.57
4705;BME280;2366;51.332;6.610;2023-07-22T00:43:58;101251.66;;;19.54;51.53
4705;BME280;2366;51.332;6.610;2023-07-22T00:46:24;101243.72;;;19.53;51.43
4705;BME280;2366;51.332;6.610;2023-07-22T00:48:50;101241.44;;;19.48;52.14
4705;BME280;2366;51.332;6.610;2023-07-22T00:51:16;101241.44;;;19.48;52.13
4705;BME280;2366;51.332;6.610;2023-07-22T00:53:41;101240.59;;;19.47;52.30
4705;BME280;2366;51.332;6.610;2023-07-22T00:56:07;101233.22;;;19.49;51.91
4705;BME280;2366;51.332;6.610;2023-07-22T00:58:34;101232.22;;;19.41;52.47
4705;BME280;2366;51.332;6.610;2023-07-22T01:00:59;101232.81;;;19.35;52.55
4705;BME280;2366;51.332;6.610;2023-07-22T01:03:24;101231.78;;;19.36;52.74
4705;BME280;2366;51.332;6.610;2023-07-22T01:05:51;101229.25;;;19.34;53.07
4705;BME280;2366;51.332;6.610;2023-07-22T01:08:18;101231.38;;;19.31;53.09
4705;BME280;2366;51.332;6.610;2023-07-22T01:10:44;101235.03;;;19.29;53.35
4705;BME280;2366;51.332;6.610;2023-07-22T01:13:09;101232.34;;;19.29;53.30
4705;BME280;2366;51.332;6.610;2023-07-22T01:15:35;101239.44;;;19.31;53.16
4705;BME280;2366;51.332;6.610;2023-07-22T01:18:03;101226.53;;;19.24;53.33
4705;BME280;2366;51.332;6.610;2023-07-22T01:20:29;101220.88;;;19.27;53.22
4705;BME280;2366;51.332;6.610;2023-07-22T01:22:55;101226.97;;;19.29;53.13
4705;BME280;2366;51.332;6.610;2023-07-22T01:25:21;101216.50;;;19.26;53.28
4705;BME280;2366;51.332;6.610;2023-07-22T01:27:52;101214.53;;;19.28;53.31
4705;BME280;2366;51.332;6.610;2023-07-22T01:30:18;101217.22;;;19.28;53.19
4705;BME280;2366;51.332;6.610;2023-07-22T01:32:45;101215.25;;;19.31;53.18
4705;BME280;2366;51.332;6.610;2023-07-22T01:35:10;101218.66;;;19.33;53.31
4705;BME280;2366;51.332;6.610;2023-07-22T01:37:36;101218.19;;;19.27;53.19
4705;BME280;2366;51.332;6.610;2023-07-22T01:40:02;101218.19;;;19.27;53.20
4705;BME280;2366;51.332;6.610;2023-07-22T01:42:41;101220.16;;;19.25;53.26
4705;BME280;2366;51.332;6.610;2023-07-22T01:45:07;101220.16;;;19.16;53.61
4705;BME280;2366;51.332;6.610;2023-07-22T01:47:37;101214.19;;;19.12;53.80
4705;BME280;2366;51.332;6.610;2023-07-22T01:50:04;101198.47;;;18.98;53.65
4705;BME280;2366;51.332;6.610;2023-07-22T01:52:29;101208.50;;;18.96;53.56
4705;BME280;2366;51.332;6.610;2023-07-22T01:54:55;101207.34;;;18.88;53.50
4705;BME280;2366;51.332;6.610;2023-07-22T01:57:20;101209.88;;;18.80;53.78
4705;BME280;2366;51.332;6.610;2023-07-22T01:59:46;101206.97;;;18.72;53.61
4705;BME280;2366;51.332;6.610;2023-07-22T02:02:11;101221.38;;;18.71;53.63
4705;BME280;2366;51.332;6.610;2023-07-22T02:04:36;101212.88;;;18.66;53.48
4705;BME280;2366;51.332;6.610;2023-07-22T02:07:02;101208.34;;;18.57;53.84
4705;BME280;2366;51.332;6.610;2023-07-22T02:09:27;101212.25;;;18.53;54.06
4705;BME280;2366;51.332;6.610;2023-07-22T02:11:53;101217.31;;;18.46;54.22
4705;BME280;2366;51.332;6.610;2023-07-22T02:14:19;101211.22;;;18.44;53.86
4705;BME280;2366;51.332;6.610;2023-07-22T02:16:44;101205.38;;;18.39;54.46
4705;BME280;2366;51.332;6.610;2023-07-22T02:19:09;101214.88;;;18.43;54.68
4705;BME280;2366;51.332;6.610;2023-07-22T02:21:35;101220.13;;;18.44;54.69
4705;BME280;2366;51.332;6.610;2023-07-22T02:24:00;101210.69;;;18.50;54.39
4705;BME280;2366;51.332;6.610;2023-07-22T02:26:26;101215.19;;;18.50;54.14
4705;BME280;2366;51.332;6.610;2023-07-22T02:28:51;101213.22;;;18.52;54.37
4705;BME280;2366;51.332;6.610;2023-07-22T02:31:16;101207.75;;;18.53;54.34
4705;BME280;2366;51.332;6.610;2023-07-22T02:33:42;101205.19;;;18.52;53.54
4705;BME280;2366;51.332;6.610;2023-07-22T02:36:08;101203.50;;;18.51;54.12
4705;BME280;2366;51.332;6.610;2023-07-22T02:38:33;101203.22;;;18.54;53.94
4705;BME280;2366;51.332;6.610;2023-07-22T02:41:03;101204.47;;;18.50;54.05
4705;BME280;2366;51.332;6.610;2023-07-22T02:43:30;101206.59;;;18.46;54.02
4705;BME280;2366;51.332;6.610;2023-07-22T02:45:56;101206.00;;;18.42;54.03
4705;BME280;2366;51.332;6.610;2023-07-22T02:48:21;101209.91;;;18.38;54.14
4705;BME280;2366;51.332;6.610;2023-07-22T02:50:46;101214.03;;;18.42;54.07
4705;BME280;2366;51.332;6.610;2023-07-22T02:53:12;101209.91;;;18.38;53.95
4705;BME280;2366;51.332;6.610;2023-07-22T02:55:37;101214.13;;;18.31;53.87
4705;BME280;2366;51.332;6.610;2023-07-22T02:58:03;101211.84;;;18.26;54.10
4705;BME280;2366;51.332;6.610;2023-07-22T03:00:28;101209.59;;;18.32;53.73
4705;BME280;2366;51.332;6.610;2023-07-22T03:02:55;101208.22;;;18.37;53.79
4705;BME280;2366;51.332;6.610;2023-07-22T03:05:28;101222.81;;;18.44;53.56
4705;BME280;2366;51.332;6.610;2023-07-22T03:07:54;101220.84;;;18.46;53.16
4705;BME280;2366;51.332;6.610;2023-07-22T03:10:20;101225.78;;;18.41;53.28
4705;BME280;2366;51.332;6.610;2023-07-22T03:12:47;101225.19;;;18.38;53.31
4705;BME280;2366;51.332;6.610;2023-07-22T03:15:12;101227.03;;;18.37;53.31
4705;BME280;2366;51.332;6.610;2023-07-22T03:17:39;101229.41;;;18.40;53.31
4705;BME280;2366;51.332;6.610;2023-07-22T03:20:05;101225.50;;;18.44;53.33
4705;BME280;2366;51.332;6.610;2023-07-22T03:22:50;101219.53;;;18.41;53.08
4705;BME280;2366;51.332;6.610;2023-07-22T03:25:16;101220.13;;;18.44;53.07
4705;BME280;2366;51.332;6.610;2023-07-22T03:27:45;101214.22;;;18.51;52.78
4705;BME280;2366;51.332;6.610;2023-07-22T03:30:13;101215.66;;;18.55;52.98
4705;BME280;2366;51.332;6.610;2023-07-22T03:32:45;101220.44;;;18.51;53.04
4705;BME280;2366;51.332;6.610;2023-07-22T03:35:12;101221.56;;;18.48;52.30
4705;BME280;2366;51.332;6.610;2023-07-22T03:37:38;101221.56;;;18.48;52.90
4705;BME280;2366;51.332;6.610;2023-07-22T03:40:04;101222.94;;;18.43;52.92
4705;BME280;2366;51.332;6.610;2023-07-22T03:42:44;101219.84;;;18.47;53.07
4705;BME280;2366;51.332;6.610;2023-07-22T03:45:09;101222.88;;;18.54;53.01
4705;BME280;2366;51.332;6.610;2023-07-22T03:47:35;101227.84;;;18.59;53.05
4705;BME280;2366;51.332;6.610;2023-07-22T03:50:00;101229.81;;;18.57;52.99
4705;BME280;2366;51.332;6.610;2023-07-22T03:52:26;101230.38;;;18.60;53.05
4705;BME280;2366;51.332;6.610;2023-07-22T03:54:51;101239.31;;;18.61;53.02
4705;BME280;2366;51.332;6.610;2023-07-22T03:57:16;101231.78;;;18.55;52.52
4705;BME280;2366;51.332;6.610;2023-07-22T03:59:42;101229.63;;;18.48;53.00
4705;BME280;2366;51.332;6.610;2023-07-22T04:02:07;101232.59;;;18.45;53.22
4705;BME280;2366;51.332;6.610;2023-07-22T04:04:33;101234.53;;;18.43;53.20
4705;BME280;2366;51.332;6.610;2023-07-22T04:06:58;101237.88;;;18.36;52.83
4705;BME280;2366;51.332;6.610;2023-07-22T04:09:25;101238.00;;;18.34;53.58
4705;BME280;2366;51.332;6.610;2023-07-22T04:11:52;101236.91;;;18.37;53.42
4705;BME280;2366;51.332;6.610;2023-07-22T04:14:17;101234.78;;;18.40;53.65
4705;BME280;2366;51.332;6.610;2023-07-22T04:16:43;101237.47;;;18.40;53.52
4705;BME280;2366;51.332;6.610;2023-07-22T04:19:08;101243.56;;;18.42;53.26
4705;BME280;2366;51.332;6.610;2023-07-22T04:21:33;101237.66;;;18.48;53.40
4705;BME280;2366;51.332;6.610;2023-07-22T04:23:59;101238.78;;;18.46;53.26
4705;BME280;2366;51.332;6.610;2023-07-22T04:26:24;101241.47;;;18.46;53.33
4705;BME280;2366;51.332;6.610;2023-07-22T04:28:49;101242.19;;;18.48;53.35
4705;BME280;2366;51.332;6.610;2023-07-22T04:31:15;101243.31;;;18.45;53.57
4705;BME280;2366;51.332;6.610;2023-07-22T04:33:40;101242.03;;;18.50;53.59
4705;BME280;2366;51.332;6.610;2023-07-22T04:36:07;101237.78;;;18.47;53.20
4705;BME280;2366;51.332;6.610;2023-07-22T04:38:32;101231.19;;;18.51;53.23
4705;BME280;2366;51.332;6.610;2023-07-22T04:40:57;101235.91;;;18.59;53.20
4705;BME280;2366;51.332;6.610;2023-07-22T04:43:24;101238.19;;;18.63;53.31
4705;BME280;2366;51.332;6.610;2023-07-22T04:45:49;101236.53;;;18.72;53.17
4705;BME280;2366;51.332;6.610;2023-07-22T04:48:16;101243.84;;;18.70;52.97
4705;BME280;2366;51.332;6.610;2023-07-22T04:50:42;101237.25;;;18.74;52.98
4705;BME280;2366;51.332;6.610;2023-07-22T04:53:10;101231.22;;;18.82;52.51
4705;BME280;2366;51.332;6.610;2023-07-22T04:55:35;101241.41;;;18.88;52.58
4705;BME280;2366;51.332;6.610;2023-07-22T04:58:02;101237.34;;;18.94;52.25
4705;BME280;2366;51.332;6.610;2023-07-22T05:00:27;101235.09;;;18.99;52.37
4705;BME280;2366;51.332;6.610;2023-07-22T05:02:54;101231.31;;;19.11;51.95
4705;BME280;2366;51.332;6.610;2023-07-22T05:05:21;101238.56;;;19.20;52.05
4705;BME280;2366;51.332;6.610;2023-07-22T05:07:47;101232.22;;;19.31;51.59
4705;BME280;2366;51.332;6.610;2023-07-22T05:10:14;101238.31;;;19.33;51.18
4705;BME280;2366;51.332;6.610;2023-07-22T05:12:40;101235.13;;;19.78;51.34
4705;BME280;2366;51.332;6.610;2023-07-22T05:15:06;101230.16;;;20.13;50.07
4705;BME280;2366;51.332;6.610;2023-07-22T05:17:32;101232.81;;;20.32;48.92
4705;BME280;2366;51.332;6.610;2023-07-22T05:19:57;101241.38;;;20.55;48.81
4705;BME280;2366;51.332;6.610;2023-07-22T05:22:23;101244.00;;;21.40;47.66
4705;BME280;2366;51.332;6.610;2023-07-22T05:24:49;101238.38;;;22.23;44.87
4705;BME280;2366;51.332;6.610;2023-07-22T05:27:14;101240.94;;;22.50;44.06
4705;BME280;2366;51.332;6.610;2023-07-22T05:29:40;101236.75;;;23.25;41.90
4705;BME280;2366;51.332;6.610;2023-07-22T05:32:14;101240.78;;;24.21;40.93
4705;BME280;2366;51.332;6.610;2023-07-22T05:34:39;101252.06;;;24.73;39.44
4705;BME280;2366;51.332;6.610;2023-07-22T05:37:05;101249.06;;;24.99;40.03
4705;BME280;2366;51.332;6.610;2023-07-22T05:39:30;101251.34;;;25.81;37.69
4705;BME280;2366;51.332;6.610;2023-07-22T05:41:56;101248.09;;;26.09;35.85
4705;BME280;2366;51.332;6.610;2023-07-22T05:44:21;101248.31;;;26.22;36.26
4705;BME280;2366;51.332;6.610;2023-07-22T05:46:47;101256.78;;;26.42;36.05
4705;BME280;2366;51.332;6.610;2023-07-22T05:49:12;101251.13;;;25.91;37.26
4705;BME280;2366;51.332;6.610;2023-07-22T05:51:38;101252.06;;;26.21;36.47
4705;BME280;2366;51.332;6.610;2023-07-22T05:54:03;101252.53;;;26.25;36.06
4705;BME280;2366;51.332;6.610;2023-07-22T05:56:29;101248.47;;;26.06;36.43
4705;BME280;2366;51.332;6.610;2023-07-22T05:58:54;101256.41;;;26.31;36.67
4705;BME280;2366;51.332;6.610;2023-07-22T06:01:20;101262.09;;;26.59;36.27
4705;BME280;2366;51.332;6.610;2023-07-22T06:03:47;101261.78;;;27.13;34.68
4705;BME280;2366;51.332;6.610;2023-07-22T06:06:12;101249.66;;;27.45;34.51
4705;BME280;2366;51.332;6.610;2023-07-22T06:08:37;101255.06;;;28.32;33.61
4705;BME280;2366;51.332;6.610;2023-07-22T06:11:03;101255.59;;;28.20;33.29
4705;BME280;2366;51.332;6.610;2023-07-22T06:13:28;101244.16;;;26.94;35.17
4705;BME280;2366;51.332;6.610;2023-07-22T06:15:53;101250.88;;;26.01;36.52
4705;BME280;2366;51.332;6.610;2023-07-22T06:18:19;101242.66;;;25.00;38.41
4705;BME280;2366;51.332;6.610;2023-07-22T06:20:45;101246.88;;;24.14;40.03
4705;BME280;2366;51.332;6.610;2023-07-22T06:23:10;101247.22;;;23.78;41.96
4705;BME280;2366;51.332;6.610;2023-07-22T06:25:36;101245.75;;;23.42;41.85
4705;BME280;2366;51.332;6.610;2023-07-22T06:28:01;101244.22;;;22.96;42.92
4705;BME280;2366;51.332;6.610;2023-07-22T06:30:26;101244.31;;;22.79;43.09
4705;BME280;2366;51.332;6.610;2023-07-22T06:32:52;101250.34;;;22.64;43.29
4705;BME280;2366;51.332;6.610;2023-07-22T06:35:18;101248.03;;;23.04;43.73
4705;BME280;2366;51.332;6.610;2023-07-22T06:37:43;101251.09;;;23.17;43.57
4705;BME280;2366;51.332;6.610;2023-07-22T06:40:09;101245.75;;;23.42;43.20
4705;BME280;2366;51.332;6.610;2023-07-22T06:42:35;101242.66;;;23.95;42.34
4705;BME280;2366;51.332;6.610;2023-07-22T06:45:01;101246.19;;;24.62;41.13
4705;BME280;2366;51.332;6.610;2023-07-22T06:47:26;101241.78;;;24.44;41.74
4705;BME280;2366;51.332;6.610;2023-07-22T06:49:52;101245.88;;;24.07;42.47
4705;BME280;2366;51.332;6.610;2023-07-22T06:52:17;101247.38;;;24.18;42.56
4705;BME280;2366;51.332;6.610;2023-07-22T06:54:43;101248.66;;;25.19;40.44
4705;BME280;2366;51.332;6.610;2023-07-22T06:57:08;101238.34;;;25.46;39.97
4705;BME280;2366;51.332;6.610;2023-07-22T06:59:34;101236.69;;;25.45;39.58
4705;BME280;2366;51.332;6.610;2023-07-22T07:01:59;101233.00;;;25.37;40.05
4705;BME280;2366;51.332;6.610;2023-07-22T07:04:25;101233.06;;;25.52;39.66
4705;BME280;2366;51.332;6.610;2023-07-22T07:06:50;101235.34;;;25.87;39.30
4705;BME280;2366;51.332;6.610;2023-07-22T07:09:16;101229.72;;;25.96;37.93
4705;BME280;2366;51.332;6.610;2023-07-22T07:11:41;101238.13;;;25.55;39.65
4705;BME280;2366;51.332;6.610;2023-07-22T07:14:07;101234.69;;;25.85;39.04
4705;BME280;2366;51.332;6.610;2023-07-22T07:16:35;101232.81;;;26.08;38.21
4705;BME280;2366;51.332;6.610;2023-07-22T07:19:01;101237.69;;;26.51;38.14
4705;BME280;2366;51.332;6.610;2023-07-22T07:21:27;101242.22;;;26.88;37.70
4705;BME280;2366;51.332;6.610;2023-07-22T07:23:53;101231.22;;;27.11;37.03
4705;BME280;2366;51.332;6.610;2023-07-22T07:26:20;101233.31;;;26.79;36.33
4705;BME280;2366;51.332;6.610;2023-07-22T07:28:47;101239.56;;;26.65;37.70
4705;BME280;2366;51.332;6.610;2023-07-22T07:31:12;101245.16;;;25.96;38.71
4705;BME280;2366;51.332;6.610;2023-07-22T07:33:38;101233.91;;;26.37;38.35
4705;BME280;2366;51.332;6.610;2023-07-22T07:36:04;101242.28;;;26.95;36.98
4705;BME280;2366;51.332;6.610;2023-07-22T07:38:29;101241.84;;;26.61;37.15
4705;BME280;2366;51.332;6.610;2023-07-22T07:41:05;101239.31;;;26.60;36.96
4705;BME280;2366;51.332;6.610;2023-07-22T07:43:36;101238.75;;;26.12;38.59
4705;BME280;2366;51.332;6.610;2023-07-22T07:46:12;101240.88;;;26.01;38.33
4705;BME280;2366;51.332;6.610;2023-07-22T07:48:38;101241.59;;;25.95;39.04
4705;BME280;2366;51.332;6.610;2023-07-22T07:51:04;101246.41;;;25.85;38.75
4705;BME280;2366;51.332;6.610;2023-07-22T07:53:29;101240.09;;;25.93;38.68
4705;BME280;2366;51.332;6.610;2023-07-22T07:55:54;101247.00;;;25.72;38.39
4705;BME280;2366;51.332;6.610;2023-07-22T07:58:20;101248.94;;;25.64;39.13
4705;BME280;2366;51.332;6.610;2023-07-22T08:00:45;101241.09;;;25.69;39.09
4705;BME280;2366;51.332;6.610;2023-07-22T08:03:10;101245.91;;;25.58;39.43
4705;BME280;2366;51.332;6.610;2023-07-22T08:05:36;101239.72;;;26.34;38.00
4705;BME280;2366;51.332;6.610;2023-07-22T08:08:01;101232.81;;;26.46;37.87
4705;BME280;2366;51.332;6.610;2023-07-22T08:10:27;101238.25;;;27.05;37.02
4705;BME280;2366;51.332;6.610;2023-07-22T08:12:52;101244.97;;;27.39;35.97
4705;BME280;2366;51.332;6.610;2023-07-22T08:15:17;101244.69;;;27.34;36.55
4705;BME280;2366;51.332;6.610;2023-07-22T08:17:43;101241.97;;;27.19;36.34
4705;BME280;2366;51.332;6.610;2023-07-22T08:20:08;101251.59;;;27.73;35.52
4705;BME280;2366;51.332;6.610;2023-07-22T08:22:35;101246.38;;;28.21;34.95
4705;BME280;2366;51.332;6.610;2023-07-22T08:25:00;101243.50;;;28.51;34.11
4705;BME280;2366;51.332;6.610;2023-07-22T08:27:26;101249.34;;;27.98;34.56
4705;BME280;2366;51.332;6.610;2023-07-22T08:29:51;101241.47;;;27.67;34.95
4705;BME280;2366;51.332;6.610;2023-07-22T08:32:17;101243.69;;;27.78;35.35
4705;BME280;2366;51.332;6.610;2023-07-22T08:34:42;101243.88;;;27.55;35.76
4705;BME280;2366;51.332;6.610;2023-07-22T08:37:07;101245.09;;;27.53;35.43
4705;BME280;2366;51.332;6.610;2023-07-22T08:39:33;101246.91;;;27.67;34.15
4705;BME280;2366;51.332;6.610;2023-07-22T08:42:00;101248.84;;;27.52;35.04
4705;BME280;2366;51.332;6.610;2023-07-22T08:44:32;101247.22;;;27.94;34.76
4705;BME280;2366;51.332;6.610;2023-07-22T08:46:59;101248.75;;;27.81;34.14
4705;BME280;2366;51.332;6.610;2023-07-22T08:49:26;101238.44;;;27.55;34.95
4705;BME280;2366;51.332;6.610;2023-07-22T08:51:55;101248.16;;;28.08;34.25
4705;BME280;2366;51.332;6.610;2023-07-22T08:54:22;101239.00;;;28.72;33.70
4705;BME280;2366;51.332;6.610;2023-07-22T08:56:49;101247.25;;;29.26;33.30
4705;BME280;2366;51.332;6.610;2023-07-22T08:59:17;101237.41;;;29.32;32.54
4705;BME280;2366;51.332;6.610;2023-07-22T09:01:43;101242.34;;;28.11;33.96
4705;BME280;2366;51.332;6.610;2023-07-22T09:04:08;101237.06;;;27.44;34.93
4705;BME280;2366;51.332;6.610;2023-07-22T09:06:34;101239.69;;;27.74;34.65
4705;BME280;2366;51.332;6.610;2023-07-22T09:09:01;101227.34;;;27.35;35.29
4705;BME280;2366;51.332;6.610;2023-07-22T09:11:32;101235.50;;;27.35;35.10
4705;BME280;2366;51.332;6.610;2023-07-22T09:13:58;101232.66;;;27.43;35.38
4705;BME280;2366;51.332;6.610;2023-07-22T09:16:24;101230.09;;;28.00;34.96
4705;BME280;2366;51.332;6.610;2023-07-22T09:18:54;101231.25;;;28.47;33.63
4705;BME280;2366;51.332;6.610;2023-07-22T09:21:20;101237.31;;;28.71;32.72
4705;BME280;2366;51.332;6.610;2023-07-22T09:23:46;101239.28;;;27.99;34.50
4705;BME280;2366;51.332;6.610;2023-07-22T09:26:17;101233.47;;;28.02;33.94
4705;BME280;2366;51.332;6.610;2023-07-22T09:28:57;101239.66;;;28.17;33.93
4705;BME280;2366;51.332;6.610;2023-07-22T09:31:24;101240.19;;;27.63;34.25
4705;BME280;2366;51.332;6.610;2023-07-22T09:33:50;101238.78;;;27.16;35.33
4705;BME280;2366;51.332;6.610;2023-07-22T09:36:16;101236.50;;;27.71;34.51
4705;BME280;2366;51.332;6.610;2023-07-22T09:38:42;101234.91;;;27.98;33.91
4705;BME280;2366;51.332;6.610;2023-07-22T09:41:07;101232.53;;;27.73;34.37
4705;BME280;2366;51.332;6.610;2023-07-22T09:43:40;101234.41;;;28.72;33.06
4705;BME280;2366;51.332;6.610;2023-07-22T09:46:10;101236.06;;;29.69;32.25
4705;BME280;2366;51.332;6.610;2023-07-22T09:48:39;101217.88;;;29.35;32.07
4705;BME280;2366;51.332;6.610;2023-07-22T09:51:05;101228.00;;;29.55;32.42
4705;BME280;2366;51.332;6.610;2023-07-22T09:53:31;101224.72;;;30.06;32.09
4705;BME280;2366;51.332;6.610;2023-07-22T09:56:03;101228.06;;;30.21;30.74
4705;BME280;2366;51.332;6.610;2023-07-22T09:58:30;101224.50;;;30.47;30.18
4705;BME280;2366;51.332;6.610;2023-07-22T10:00:57;101226.34;;;30.67;30.00
4705;BME280;2366;51.332;6.610;2023-07-22T10:03:24;101227.75;;;30.83;28.96
4705;BME280;2366;51.332;6.610;2023-07-22T10:05:54;101219.38;;;30.78;29.39
4705;BME280;2366;51.332;6.610;2023-07-22T10:08:21;101227.13;;;30.87;29.06
4705;BME280;2366;51.332;6.610;2023-07-22T10:10:48;101222.63;;;30.28;29.88
4705;BME280;2366;51.332;6.610;2023-07-22T10:13:16;101210.72;;;29.27;30.51
4705;BME280;2366;51.332;6.610;2023-07-22T10:15:42;101223.88;;;29.72;30.17
4705;BME280;2366;51.332;6.610;2023-07-22T10:18:09;101216.31;;;30.07;29.39
4705;BME280;2366;51.332;6.610;2023-07-22T10:20:36;101225.13;;;30.09;29.80
4705;BME280;2366;51.332;6.610;2023-07-22T10:23:02;101209.16;;;30.06;29.89
4705;BME280;2366;51.332;6.610;2023-07-22T10:25:30;101217.50;;;29.52;30.11
4705;BME280;2366;51.332;6.610;2023-07-22T10:27:55;101210.84;;;29.81;30.24
4705;BME280;2366;51.332;6.610;2023-07-22T10:30:21;101202.44;;;29.96;29.21
4705;BME280;2366;51.332;6.610;2023-07-22T10:32:52;101200.66;;;29.28;30.90
4705;BME280;2366;51.332;6.610;2023-07-22T10:38:12;101207.00;;;29.55;30.87
4705;BME280;2366;51.332;6.610;2023-07-22T10:40:51;101197.34;;;29.66;30.33
4705;BME280;2366;51.332;6.610;2023-07-22T10:43:18;101182.25;;;29.70;30.40
4705;BME280;2366;51.332;6.610;2023-07-22T10:45:50;101187.84;;;29.22;29.98
4705;BME280;2366;51.332;6.610;2023-07-22T10:48:15;101169.09;;;28.64;31.15
4705;BME280;2366;51.332;6.610;2023-07-22T10:50:47;101175.22;;;28.73;31.31
4705;BME280;2366;51.332;6.610;2023-07-22T10:56:03;101179.41;;;29.17;29.75
4705;BME280;2366;51.332;6.610;2023-07-22T10:58:33;101170.22;;;28.76;30.57
4705;BME280;2366;51.332;6.610;2023-07-22T11:06:39;101173.13;;;28.68;31.22
4705;BME280;2366;51.332;6.610;2023-07-22T11:09:05;101170.72;;;28.93;30.78
4705;BME280;2366;51.332;6.610;2023-07-22T11:11:44;101174.78;;;28.69;31.42
4705;BME280;2366;51.332;6.610;2023-07-22T11:14:17;101175.19;;;28.66;31.97
4705;BME280;2366;51.332;6.610;2023-07-22T11:16:45;101173.72;;;29.12;31.35
4705;BME280;2366;51.332;6.610;2023-07-22T11:19:12;101171.63;;;29.14;30.82
4705;BME280;2366;51.332;6.610;2023-07-22T11:21:37;101169.31;;;28.62;31.26
4705;BME280;2366;51.332;6.610;2023-07-22T11:24:04;101172.84;;;29.04;30.80
4705;BME280;2366;51.332;6.610;2023-07-22T11:26:30;101178.63;;;29.43;30.69
4705;BME280;2366;51.332;6.610;2023-07-22T11:28:57;101184.94;;;29.50;29.25
4705;BME280;2366;51.332;6.610;2023-07-22T11:31:22;101167.50;;;29.58;29.38
4705;BME280;2366;51.332;6.610;2023-07-22T11:33:55;101164.97;;;29.36;30.51
4705;BME280;2366;51.332;6.610;2023-07-22T11:36:20;101158.84;;;29.34;28.75
4705;BME280;2366;51.332;6.610;2023-07-22T11:38:45;101157.00;;;29.35;29.77
4705;BME280;2366;51.332;6.610;2023-07-22T11:41:11;101167.09;;;29.54;30.25
4705;BME280;2366;51.332;6.610;2023-07-22T11:43:37;101167.28;;;29.39;29.69
4705;BME280;2366;51.332;6.610;2023-07-22T11:46:05;101158.09;;;28.85;29.74
4705;BME280;2366;51.332;6.610;2023-07-22T11:48:31;101151.69;;;28.58;31.02
4705;BME280;2366;51.332;6.610;2023-07-22T11:51:00;101150.09;;;29.45;29.73
4705;BME280;2366;51.332;6.610;2023-07-22T11:53:28;101160.81;;;29.94;29.20
4705;BME280;2366;51.332;6.610;2023-07-22T11:55:55;101148.66;;;29.76;29.20
4705;BME280;2366;51.332;6.610;2023-07-22T11:58:26;101147.59;;;29.97;29.31
4705;BME280;2366;51.332;6.610;2023-07-22T12:01:03;101149.88;;;30.07;28.92
4705;BME280;2366;51.332;6.610;2023-07-22T12:03:33;101145.66;;;30.11;29.28
4705;BME280;2366;51.332;6.610;2023-07-22T12:06:08;101130.34;;;29.83;29.82
4705;BME280;2366;51.332;6.610;2023-07-22T12:08:34;101123.63;;;29.73;29.17
4705;BME280;2366;51.332;6.610;2023-07-22T12:11:01;101128.91;;;29.74;29.35
4705;BME280;2366;51.332;6.610;2023-07-22T12:13:26;101119.66;;;29.88;29.45
4705;BME280;2366;51.332;6.610;2023-07-22T12:16:02;101119.03;;;29.86;28.74
4705;BME280;2366;51.332;6.610;2023-07-22T12:18:28;101109.97;;;30.06;28.84
4705;BME280;2366;51.332;6.610;2023-07-22T12:20:53;101107.38;;;30.31;28.47
4705;BME280;2366;51.332;6.610;2023-07-22T12:23:18;101117.94;;;30.01;27.68
4705;BME280;2366;51.332;6.610;2023-07-22T12:25:46;101099.84;;;30.06;27.96
4705;BME280;2366;51.332;6.610;2023-07-22T12:28:12;101103.25;;;29.82;27.79
4705;BME280;2366;51.332;6.610;2023-07-22T12:30:37;101098.19;;;29.85;29.04
4705;BME280;2366;51.332;6.610;2023-07-22T12:33:03;101100.72;;;29.40;28.65
4705;BME280;2366;51.332;6.610;2023-07-22T12:35:29;101095.25;;;29.34;28.05
4705;BME280;2366;51.332;6.610;2023-07-22T12:37:54;101103.44;;;29.40;28.50
4705;BME280;2366;51.332;6.610;2023-07-22T12:40:20;101102.81;;;29.38;28.72
4705;BME280;2366;51.332;6.610;2023-07-22T12:42:46;101101.56;;;29.94;28.96
4705;BME280;2366;51.332;6.610;2023-07-22T12:45:12;101092.31;;;30.02;28.41
4705;BME280;2366;51.332;6.610;2023-07-22T12:47:38;101107.38;;;30.24;28.08
4705;BME280;2366;51.332;6.610;2023-07-22T12:50:03;101097.66;;;30.42;27.75
4705;BME280;2366;51.332;6.610;2023-07-22T12:52:29;101095.13;;;30.47;28.47
4705;BME280;2366;51.332;6.610;2023-07-22T12:54:54;101096.88;;;30.35;28.22
4705;BME280;2366;51.332;6.610;2023-07-22T12:57:21;101091.19;;;30.36;28.30
4705;BME280;2366;51.332;6.610;2023-07-22T12:59:46;101096.88;;;30.28;28.19
4705;BME280;2366;51.332;6.610;2023-07-22T13:02:11;101092.63;;;30.45;27.78
4705;BME280;2366;51.332;6.610;2023-07-22T13:04:37;101083.56;;;30.38;27.55
4705;BME280;2366;51.332;6.610;2023-07-22T13:07:03;101087.41;;;30.30;28.12
4705;BME280;2366;51.332;6.610;2023-07-22T13:09:29;101090.63;;;30.66;27.82
4705;BME280;2366;51.332;6.610;2023-07-22T13:11:54;101084.75;;;30.62;27.53
4705;BME280;2366;51.332;6.610;2023-07-22T13:14:20;101081.59;;;30.65;27.52
4705;BME280;2366;51.332;6.610;2023-07-22T13:16:45;101076.97;;;30.59;27.51